Time;durP1;ratioP1;P1;durP2;ratioP2;P2;SDS_P1;SDS_P2;PMS_P1;PMS_P2;Temp;Humidity;BMP_temperature;BMP_pressure;BME280_temperature;BME280_humidity;BME280_pressure;Samples;Min_cycle;Max_cycle;Signal;HPM_P1;HPM_P2
2022/03/22 00:01:15;;;;;;;22.67;17.45;;;27.20;99.90;;;;;;4160526;28;20060;-73
2022/03/22 00:03:25;;;;;;;21.10;16.92;;;27.20;99.90;;;;;;4126344;28;20042;-73
2022/03/22 00:05:37;;;;;;;21.23;17.55;;;27.20;99.90;;;;;;4161052;28;20049;-71
2022/03/22 00:07:45;;;;;;;20.90;17.38;;;27.20;99.90;;;;;;4168104;28;20083;-74
2022/03/22 00:09:51;;;;;;;25.48;17.40;;;27.20;99.90;;;;;;4161229;28;20122;-69
2022/03/22 00:11:56;;;;;;;49.15;18.17;;;27.30;99.90;;;;;;4161118;28;20049;-72
2022/03/22 00:14:06;;;;;;;28.50;18.02;;;27.30;99.90;;;;;;4161208;28;20045;-73
2022/03/22 00:16:16;;;;;;;25.20;18.98;;;27.40;99.90;;;;;;4161432;28;20080;-73
2022/03/22 00:18:42;;;;;;;20.95;16.92;;;27.50;99.90;;;;;;4142552;28;20136;-73
2022/03/22 00:20:49;;;;;;;22.75;16.92;;;27.50;99.90;;;;;;4141868;28;20564;-74
2022/03/22 00:22:55;;;;;;;25.92;17.23;;;27.60;99.90;;;;;;4145610;28;20165;-73
2022/03/22 00:25:06;;;;;;;23.45;16.80;;;27.70;99.90;;;;;;4142406;28;20119;-72
2022/03/22 00:27:14;;;;;;;18.63;14.43;;;27.80;99.90;;;;;;4151672;28;20046;-70
2022/03/22 00:29:22;;;;;;;17.65;14.75;;;27.90;99.90;;;;;;4142090;28;20141;-72
2022/03/22 00:31:28;;;;;;;18.60;15.13;;;27.90;99.90;;;;;;4142443;28;20136;-69
2022/03/22 00:33:42;;;;;;;19.90;15.23;;;28.00;99.90;;;;;;4141774;28;20084;-71
2022/03/22 00:35:50;;;;;;;18.58;13.77;;;28.00;99.90;;;;;;4139484;28;20348;-71
2022/03/22 00:37:59;;;;;;;17.55;13.80;;;28.00;99.90;;;;;;4142374;28;20085;-72
2022/03/22 00:40:17;;;;;;;16.45;13.02;;;28.10;99.90;;;;;;4142217;28;20057;-71
2022/03/22 00:42:22;;;;;;;19.65;13.65;;;28.20;99.90;;;;;;4141696;28;20038;-72
2022/03/22 00:44:28;;;;;;;17.15;13.32;;;28.20;99.90;;;;;;4140988;28;20046;-71
2022/03/22 00:46:34;;;;;;;16.23;12.13;;;28.20;99.90;;;;;;4139818;28;20042;-71
2022/03/22 00:48:40;;;;;;;16.20;11.88;;;28.30;99.90;;;;;;4142562;28;20073;-71
2022/03/22 00:50:52;;;;;;;15.77;11.73;;;28.30;99.90;;;;;;4142230;28;20050;-71
2022/03/22 00:53:00;;;;;;;13.55;10.68;;;28.40;99.90;;;;;;4142593;28;20448;-70
2022/03/22 00:55:07;;;;;;;10.75;9.13;;;28.40;99.90;;;;;;4144902;28;20092;-70
2022/03/22 00:57:19;;;;;;;11.40;9.13;;;28.40;99.90;;;;;;4143343;28;20057;-71
2022/03/22 01:01:45;;;;;;;19.67;9.77;;;28.50;99.90;;;;;;4162464;28;20080;-70
2022/03/22 01:03:51;;;;;;;13.52;10.43;;;28.50;99.90;;;;;;4163519;28;20133;-67
2022/03/22 01:06:01;;;;;;;13.60;10.32;;;28.60;99.90;;;;;;4162890;28;20096;-71
2022/03/22 01:08:10;;;;;;;12.85;9.98;;;28.60;99.90;;;;;;4163744;28;20076;-71
2022/03/22 01:10:31;;;;;;;11.73;8.98;;;28.70;99.90;;;;;;4163288;28;20042;-70
2022/03/22 01:12:47;;;;;;;11.05;8.75;;;28.70;99.90;;;;;;4163037;28;20053;-69
2022/03/22 01:14:52;;;;;;;10.70;8.85;;;28.80;99.90;;;;;;4157834;28;20431;-67
2022/03/22 01:17:00;;;;;;;10.73;8.60;;;28.90;99.90;;;;;;4145109;28;20641;-68
2022/03/22 01:19:08;;;;;;;12.65;8.00;;;28.90;99.90;;;;;;4164558;28;20041;-69
2022/03/22 01:21:21;;;;;;;12.95;8.88;;;28.90;99.90;;;;;;4163833;28;20134;-69
2022/03/22 01:23:28;;;;;;;11.68;8.50;;;29.00;99.90;;;;;;4162797;28;20104;-70
2022/03/22 01:25:39;;;;;;;12.07;8.82;;;29.00;99.90;;;;;;4163684;28;20054;-70
2022/03/22 01:27:46;;;;;;;10.68;8.05;;;29.00;99.90;;;;;;4164016;28;20605;-70
2022/03/22 01:29:53;;;;;;;11.10;7.60;;;29.10;99.90;;;;;;4164151;28;20037;-71
2022/03/22 01:31:59;;;;;;;10.73;8.02;;;29.10;99.90;;;;;;4163800;28;20076;-70
2022/03/22 01:34:04;;;;;;;9.38;7.63;;;29.20;99.90;;;;;;4164224;28;20049;-70
2022/03/22 01:36:13;;;;;;;9.80;7.55;;;29.30;99.90;;;;;;4163207;28;20052;-69
2022/03/22 01:38:23;;;;;;;11.20;8.23;;;29.20;99.90;;;;;;4164113;28;20068;-70
2022/03/22 01:40:30;;;;;;;11.00;7.78;;;29.20;99.90;;;;;;4164316;28;20057;-70
2022/03/22 01:42:37;;;;;;;11.57;8.32;;;29.30;99.90;;;;;;4164064;28;20038;-71
2022/03/22 01:44:44;;;;;;;11.25;7.55;;;29.30;99.90;;;;;;4163113;28;20048;-71
2022/03/22 01:46:50;;;;;;;10.57;8.02;;;29.40;99.90;;;;;;4163425;28;20041;-70
2022/03/22 01:48:59;;;;;;;10.77;8.20;;;29.40;99.90;;;;;;4163988;28;20108;-70
2022/03/22 01:51:09;;;;;;;11.55;7.65;;;29.50;99.90;;;;;;4163588;28;20053;-69
2022/03/22 01:53:21;;;;;;;12.15;8.20;;;29.50;99.90;;;;;;4145139;28;20096;-69
2022/03/22 01:55:28;;;;;;;15.48;8.27;;;29.50;99.90;;;;;;4163193;28;20381;-67
2022/03/22 01:57:35;;;;;;;12.48;7.13;;;29.60;99.90;;;;;;4163483;28;20567;-67
2022/03/22 01:59:43;;;;;;;11.30;7.00;;;29.60;99.90;;;;;;4158699;28;20037;-69
2022/03/22 02:06:33;;;;;;;10.02;6.97;;;29.70;99.90;;;;;;4161611;28;20033;-70
2022/03/22 02:08:41;;;;;;;8.45;6.53;;;29.80;99.90;;;;;;4156738;28;20050;-71
2022/03/22 02:10:49;;;;;;;11.02;6.97;;;29.80;99.90;;;;;;4187888;28;20072;-68
2022/03/22 02:12:56;;;;;;;8.70;6.85;;;29.80;99.90;;;;;;4161969;28;20049;-70
2022/03/22 02:15:05;;;;;;;8.55;6.82;;;29.80;99.90;;;;;;4143773;28;20046;-70
2022/03/22 02:17:11;;;;;;;9.75;6.65;;;29.90;99.90;;;;;;4161042;28;20040;-71
2022/03/22 02:19:16;;;;;;;7.75;6.35;;;29.90;99.90;;;;;;4167974;28;20551;-70
2022/03/22 02:21:23;;;;;;;8.75;6.32;;;29.90;99.90;;;;;;4171508;28;20037;-71
2022/03/22 02:23:56;;;;;;;11.23;6.40;;;30.00;99.90;;;;;;4164810;28;20045;-71
2022/03/22 02:26:01;;;;;;;9.43;6.60;;;30.00;99.90;;;;;;4160240;28;20497;-71
2022/03/22 02:28:07;;;;;;;7.35;6.43;;;30.00;99.90;;;;;;4156937;28;20045;-71
2022/03/22 02:30:16;;;;;;;7.60;6.15;;;30.10;99.90;;;;;;4162271;28;20057;-69
2022/03/22 02:32:24;;;;;;;8.82;6.38;;;30.10;99.90;;;;;;4162292;28;20554;-70
2022/03/22 02:34:30;;;;;;;6.93;5.82;;;30.20;99.90;;;;;;4162828;28;20125;-71
2022/03/22 02:36:39;;;;;;;9.00;5.97;;;30.20;99.70;;;;;;4162560;28;20486;-70
2022/03/22 02:38:44;;;;;;;8.35;6.47;;;30.20;99.70;;;;;;4162807;28;20065;-69
2022/03/22 02:40:48;;;;;;;8.05;6.10;;;30.20;99.70;;;;;;4162139;28;20471;-69
2022/03/22 02:42:58;;;;;;;7.40;5.88;;;30.30;99.70;;;;;;4162277;28;20084;-69
2022/03/22 02:45:03;;;;;;;8.27;6.18;;;30.30;99.90;;;;;;4160149;28;20187;-70
2022/03/22 02:47:10;;;;;;;8.57;6.40;;;30.30;99.90;;;;;;4161525;28;20050;-69
2022/03/22 02:49:17;;;;;;;10.23;6.85;;;30.40;99.70;;;;;;4162257;28;20072;-69
2022/03/22 02:51:21;;;;;;;8.85;7.35;;;30.40;99.80;;;;;;4162126;28;20041;-69
2022/03/22 02:53:26;;;;;;;9.20;7.25;;;30.40;99.90;;;;;;4161705;28;20111;-70
2022/03/22 02:55:34;;;;;;;8.45;6.75;;;30.40;99.90;;;;;;4162015;28;20067;-68
2022/03/22 02:57:40;;;;;;;9.30;6.65;;;30.50;99.90;;;;;;4160488;28;20443;-69
2022/03/22 02:59:45;;;;;;;8.18;7.10;;;30.60;99.90;;;;;;4159052;28;20045;-70
2022/03/22 03:01:52;;;;;;;8.02;6.55;;;30.60;99.90;;;;;;4159465;28;20065;-69
2022/03/22 03:03:57;;;;;;;9.02;6.68;;;30.70;99.90;;;;;;4161365;28;20107;-70
2022/03/22 03:06:04;;;;;;;10.07;6.55;;;30.70;99.90;;;;;;4161370;28;20140;-71
2022/03/22 03:08:10;;;;;;;10.60;6.30;;;30.80;99.80;;;;;;4161515;28;20045;-72
2022/03/22 03:10:15;;;;;;;7.82;6.43;;;30.80;99.30;;;;;;4161219;28;20167;-71
2022/03/22 03:12:21;;;;;;;9.82;6.90;;;30.80;99.30;;;;;;4157969;28;20049;-70
2022/03/22 03:16:44;;;;;;;9.77;6.72;;;30.90;99.50;;;;;;4158727;28;20045;-69
2022/03/22 03:18:52;;;;;;;7.32;6.18;;;30.90;99.50;;;;;;4126506;28;20917;-68
2022/03/22 03:21:00;;;;;;;9.20;6.10;;;31.00;99.20;;;;;;4161514;28;20045;-68
2022/03/22 03:23:04;;;;;;;9.70;6.40;;;31.10;98.60;;;;;;4159632;28;20046;-69
2022/03/22 03:25:13;;;;;;;10.23;6.43;;;31.10;98.80;;;;;;4160400;28;20050;-70
2022/03/22 03:27:25;;;;;;;9.85;6.70;;;31.10;98.70;;;;;;4161815;28;20584;-70
2022/03/22 03:29:31;;;;;;;8.63;6.65;;;31.20;98.70;;;;;;4159271;28;20041;-71
2022/03/22 03:31:37;;;;;;;9.20;7.00;;;31.20;98.70;;;;;;4160395;28;20045;-70
2022/03/22 03:33:46;;;;;;;9.55;5.93;;;31.30;98.80;;;;;;4162264;28;20060;-70
2022/03/22 03:35:53;;;;;;;8.70;6.07;;;31.10;98.50;;;;;;4161387;28;20049;-70
2022/03/22 03:37:58;;;;;;;7.40;5.95;;;31.30;98.50;;;;;;4159048;28;20111;-70
2022/03/22 03:40:06;;;;;;;6.28;5.07;;;31.30;98.20;;;;;;4159301;28;20103;-70
2022/03/22 03:42:12;;;;;;;8.45;5.93;;;31.40;98.20;;;;;;4161714;28;20045;-70
2022/03/22 03:48:59;;;;;;;8.20;5.53;;;31.40;97.40;;;;;;4162111;28;20061;-69
2022/03/22 03:51:05;;;;;;;6.75;5.20;;;31.50;97.70;;;;;;4157899;28;20075;-69
2022/03/22 03:53:15;;;;;;;8.00;5.43;;;31.50;97.70;;;;;;4161581;28;20080;-68
2022/03/22 03:55:20;;;;;;;8.38;5.72;;;31.60;97.30;;;;;;4161581;28;20091;-71
2022/03/22 03:57:25;;;;;;;6.97;5.40;;;31.60;97.10;;;;;;4160222;28;20044;-68
2022/03/22 03:59:34;;;;;;;7.85;5.90;;;31.70;96.70;;;;;;4160823;28;20033;-68
2022/03/22 04:01:39;;;;;;;7.22;5.72;;;31.70;96.80;;;;;;4160868;28;20059;-69
2022/03/22 04:03:46;;;;;;;11.40;5.90;;;31.80;97.10;;;;;;4161612;28;20041;-69
2022/03/22 04:05:55;;;;;;;8.88;5.72;;;31.70;97.60;;;;;;4161812;28;20059;-67
2022/03/22 04:08:00;;;;;;;9.18;6.25;;;31.60;98.00;;;;;;4161480;28;20115;-69
2022/03/22 04:10:05;;;;;;;9.20;6.22;;;31.60;98.00;;;;;;4161664;28;20136;-69
2022/03/22 04:12:12;;;;;;;7.55;6.10;;;31.50;97.90;;;;;;4160945;28;20046;-70
2022/03/22 04:14:16;;;;;;;7.60;5.78;;;31.50;97.90;;;;;;4161525;28;20088;-69
2022/03/22 04:16:21;;;;;;;7.20;6.03;;;31.60;97.80;;;;;;4161359;28;20045;-69
2022/03/22 04:18:28;;;;;;;6.60;5.70;;;31.80;97.30;;;;;;4161599;28;20069;-70
2022/03/22 04:20:33;;;;;;;8.95;5.03;;;31.90;97.10;;;;;;4160520;28;20140;-69
2022/03/22 04:22:37;;;;;;;5.65;4.70;;;32.00;96.20;;;;;;4159973;28;20041;-69
2022/03/22 04:24:44;;;;;;;7.07;5.18;;;32.10;96.20;;;;;;4160918;28;20042;-68
2022/03/22 04:26:49;;;;;;;6.55;4.75;;;32.10;96.10;;;;;;4158456;28;20054;-69
2022/03/22 04:33:33;;;;;;;6.57;4.47;;;31.90;95.50;;;;;;4164574;28;20049;-68
2022/03/22 04:35:39;;;;;;;6.65;4.38;;;31.80;95.90;;;;;;4157628;28;20058;-68
2022/03/22 04:37:50;;;;;;;7.00;4.90;;;31.80;95.80;;;;;;4129138;28;20078;-69
2022/03/22 04:39:55;;;;;;;10.60;5.00;;;31.80;95.90;;;;;;4164924;28;20041;-69
2022/03/22 04:42:00;;;;;;;5.82;5.18;;;31.80;95.90;;;;;;4164176;28;20077;-69
2022/03/22 04:44:09;;;;;;;7.65;5.53;;;31.80;96.00;;;;;;4164601;28;20057;-69
2022/03/22 04:46:18;;;;;;;8.85;6.07;;;31.80;96.30;;;;;;4161288;28;20075;-69
2022/03/22 04:48:22;;;;;;;7.40;5.60;;;31.70;96.40;;;;;;4163663;28;20131;-71
2022/03/22 04:50:31;;;;;;;7.30;5.13;;;31.70;96.40;;;;;;4164604;28;20073;-69
2022/03/22 04:57:16;;;;;;;7.53;4.70;;;31.90;95.80;;;;;;4164080;28;20543;-68
2022/03/22 04:59:24;;;;;;;6.47;5.00;;;32.00;95.70;;;;;;4163982;28;20052;-69
2022/03/22 05:01:28;;;;;;;7.45;5.07;;;32.10;95.50;;;;;;4163966;28;20104;-69
2022/03/22 05:03:37;;;;;;;7.90;5.05;;;32.20;95.30;;;;;;4164516;28;20045;-71
2022/03/22 05:08:01;;;;;;;7.95;4.75;;;32.30;95.30;;;;;;4157994;28;20057;-69
2022/03/22 05:10:10;;;;;;;6.82;4.40;;;32.40;95.00;;;;;;4163812;28;20071;-69
2022/03/22 05:12:15;;;;;;;6.88;4.60;;;32.50;95.20;;;;;;4163652;28;20423;-71
2022/03/22 05:14:19;;;;;;;5.18;4.30;;;32.40;95.00;;;;;;4160632;28;20049;-71
2022/03/22 05:16:32;;;;;;;5.85;4.50;;;32.40;94.90;;;;;;4163767;28;20083;-69
2022/03/22 05:18:36;;;;;;;7.43;4.25;;;32.40;94.70;;;;;;4163768;28;20037;-71
2022/03/22 05:20:41;;;;;;;7.28;4.53;;;32.50;95.00;;;;;;4164153;28;20045;-69
2022/03/22 05:22:49;;;;;;;10.70;4.72;;;32.60;94.50;;;;;;4163757;28;20037;-70
2022/03/22 05:24:54;;;;;;;6.38;4.60;;;32.60;94.30;;;;;;4164238;28;20067;-67
2022/03/22 05:26:59;;;;;;;6.43;4.35;;;32.60;94.30;;;;;;4163953;28;20132;-69
2022/03/22 05:29:06;;;;;;;6.07;4.13;;;32.70;94.00;;;;;;4163676;28;20133;-69
2022/03/22 05:31:14;;;;;;;6.00;4.50;;;32.70;93.70;;;;;;4160903;28;20472;-69
2022/03/22 05:33:19;;;;;;;5.93;4.03;;;32.80;93.80;;;;;;4164443;28;20420;-70
2022/03/22 05:35:28;;;;;;;5.80;3.75;;;32.80;93.60;;;;;;4164026;28;20072;-69
2022/03/22 05:37:32;;;;;;;5.03;3.90;;;32.80;94.20;;;;;;4163948;28;20042;-68
2022/03/22 05:39:37;;;;;;;4.78;3.80;;;32.80;93.90;;;;;;4163270;28;20610;-68
2022/03/22 05:41:45;;;;;;;6.00;4.00;;;32.70;94.00;;;;;;4159892;28;20038;-69
2022/03/22 12:12:02;;;;;;;15.00;7.65;;;31.70;95.50;;;;;;4154394;28;20049;-69
2022/03/22 12:14:08;;;;;;;11.43;7.88;;;31.70;95.50;;;;;;4155449;28;20103;-69
2022/03/22 12:16:15;;;;;;;13.48;7.95;;;31.70;95.50;;;;;;4157516;28;20553;-69
2022/03/22 12:18:20;;;;;;;11.85;7.00;;;31.60;95.70;;;;;;4158257;28;20042;-70
2022/03/22 12:20:26;;;;;;;16.38;7.65;;;31.60;96.00;;;;;;4156444;28;20073;-69
2022/03/22 12:22:38;;;;;;;14.80;8.25;;;31.60;96.10;;;;;;4157270;28;20115;-69
2022/03/22 12:24:44;;;;;;;14.95;9.32;;;31.60;96.30;;;;;;4158488;28;20041;-67
2022/03/22 12:26:52;;;;;;;16.42;10.23;;;31.60;96.40;;;;;;4163626;28;20037;-66
2022/03/22 12:29:02;;;;;;;19.17;11.23;;;31.60;96.60;;;;;;4157329;28;20600;-66
2022/03/22 12:31:12;;;;;;;21.30;10.90;;;31.50;96.70;;;;;;4156383;28;20041;-66
2022/03/22 12:33:21;;;;;;;15.10;10.63;;;31.50;96.80;;;;;;4157714;28;20515;-67
2022/03/22 12:35:31;;;;;;;18.17;11.37;;;31.50;96.90;;;;;;4156888;28;20054;-67
2022/03/22 12:37:35;;;;;;;18.77;11.95;;;31.40;96.90;;;;;;4157353;28;20280;-66
2022/03/22 12:39:42;;;;;;;19.40;12.98;;;31.50;97.10;;;;;;4158750;28;20061;-66
2022/03/22 12:42:04;;;;;;;25.00;15.15;;;31.50;97.20;;;;;;4157028;28;20049;-67
2022/03/22 12:44:11;;;;;;;21.95;14.88;;;31.40;97.30;;;;;;4158938;28;20132;-66
2022/03/22 12:46:16;;;;;;;23.17;14.70;;;31.40;97.20;;;;;;4173826;28;20055;-67
2022/03/22 12:48:24;;;;;;;26.20;16.05;;;31.40;97.30;;;;;;4157943;28;20042;-67
2022/03/22 12:50:29;;;;;;;27.77;17.50;;;31.40;97.30;;;;;;4161468;28;20048;-68
2022/03/22 12:52:34;;;;;;;26.00;19.00;;;31.40;97.30;;;;;;4161768;28;20134;-68
2022/03/22 12:54:42;;;;;;;36.92;24.73;;;31.40;97.20;;;;;;4092976;28;20051;-66
2022/03/22 12:56:50;;;;;;;33.25;23.77;;;31.40;97.20;;;;;;4161626;28;20072;-66
2022/03/22 12:59:01;;;;;;;31.58;22.20;;;31.30;97.10;;;;;;4160898;28;20049;-66
2022/03/22 13:01:16;;;;;;;31.88;21.73;;;31.30;97.20;;;;;;4182708;28;20122;-66
2022/03/22 13:03:21;;;;;;;28.02;19.90;;;31.30;97.20;;;;;;4158715;28;20049;-66
2022/03/22 13:05:27;;;;;;;29.65;17.90;;;31.30;97.30;;;;;;4161013;28;20049;-66
2022/03/22 13:07:50;;;;;;;31.25;20.83;;;31.30;97.40;;;;;;4161611;28;20100;-66
2022/03/22 13:12:14;;;;;;;33.35;22.63;;;31.20;97.90;;;;;;4160126;28;20050;-66
2022/03/22 13:16:38;;;;;;;33.85;20.73;;;31.20;98.00;;;;;;4161071;28;20048;-66
2022/03/22 13:18:52;;;;;;;29.45;20.13;;;31.20;98.00;;;;;;4161410;28;20040;-66
2022/03/22 13:21:09;;;;;;;28.15;19.23;;;31.20;98.10;;;;;;4161854;28;20095;-66
2022/03/22 13:23:14;;;;;;;30.50;18.77;;;31.20;98.20;;;;;;4159151;28;20045;-66
2022/03/22 13:25:24;;;;;;;24.77;16.35;;;31.20;98.20;;;;;;4183583;28;20053;-66
2022/03/22 13:27:32;;;;;;;24.87;16.43;;;31.20;98.20;;;;;;4126072;28;20046;-66
2022/03/22 13:29:38;;;;;;;28.90;19.30;;;31.20;98.30;;;;;;4159596;28;20350;-66
2022/03/22 13:32:01;;;;;;;28.85;19.30;;;31.20;98.40;;;;;;4160214;28;20053;-67
2022/03/22 13:34:19;;;;;;;28.00;17.85;;;31.10;98.40;;;;;;4160261;28;20060;-66
2022/03/22 13:36:23;;;;;;;22.73;14.68;;;31.20;98.20;;;;;;4182752;28;20118;-67
2022/03/22 13:38:28;;;;;;;23.48;14.73;;;31.20;98.20;;;;;;4159863;28;20048;-67
2022/03/22 13:40:38;;;;;;;25.33;17.23;;;31.10;98.10;;;;;;4159442;28;20041;-66
2022/03/22 13:43:07;;;;;;;29.58;18.10;;;31.10;98.20;;;;;;4184002;28;20044;-67
2022/03/22 13:45:12;;;;;;;21.38;15.68;;;31.10;98.10;;;;;;4160171;28;20030;-66
2022/03/22 13:47:48;;;;;;;23.67;15.88;;;31.10;98.10;;;;;;4159164;28;20045;-66
2022/03/22 13:49:52;;;;;;;21.20;14.15;;;31.00;98.20;;;;;;4183259;28;20154;-67
2022/03/22 13:51:57;;;;;;;23.13;14.68;;;31.00;98.30;;;;;;4158022;28;20052;-66
2022/03/22 13:54:12;;;;;;;19.08;13.60;;;31.00;98.30;;;;;;4157058;28;20424;-66
2022/03/22 13:56:23;;;;;;;25.65;13.50;;;31.00;98.40;;;;;;4159545;28;20407;-66
2022/03/22 13:58:35;;;;;;;20.10;13.48;;;30.90;98.30;;;;;;4159004;28;20057;-66
2022/03/22 14:00:46;;;;;;;24.95;14.02;;;30.90;98.40;;;;;;4157215;28;20042;-66
2022/03/22 14:02:53;;;;;;;22.58;14.90;;;30.90;98.40;;;;;;4157690;28;20845;-66
2022/03/22 14:04:58;;;;;;;24.27;15.90;;;30.90;98.40;;;;;;4158739;28;20115;-66
2022/03/22 14:07:03;;;;;;;26.55;14.85;;;30.90;98.40;;;;;;4158342;28;20049;-66
2022/03/22 14:09:08;;;;;;;28.50;15.27;;;30.80;98.40;;;;;;4159098;28;20046;-67
2022/03/22 14:11:13;;;;;;;24.05;15.18;;;30.90;98.40;;;;;;4158604;28;20864;-66
2022/03/22 14:13:23;;;;;;;25.58;15.30;;;30.90;98.40;;;;;;4159001;28;20103;-66
2022/03/22 14:15:29;;;;;;;23.40;14.57;;;30.80;98.30;;;;;;4159667;28;20060;-67
2022/03/22 14:17:33;;;;;;;21.85;14.70;;;30.80;98.30;;;;;;4160233;28;20157;-66
2022/03/22 14:19:42;;;;;;;22.60;14.43;;;30.80;98.20;;;;;;4159637;28;20211;-66
2022/03/22 14:21:47;;;;;;;21.42;14.43;;;30.80;98.30;;;;;;4158912;28;20502;-66
2022/03/22 14:23:52;;;;;;;22.80;14.75;;;30.80;98.30;;;;;;4159355;28;20690;-66
2022/03/22 14:26:00;;;;;;;21.38;14.80;;;30.80;98.20;;;;;;4159115;28;20045;-66
2022/03/22 14:28:06;;;;;;;22.15;14.00;;;30.80;98.30;;;;;;4158662;28;20510;-67
2022/03/22 14:30:15;;;;;;;22.17;13.98;;;30.70;98.30;;;;;;4158664;28;20055;-66
2022/03/22 14:32:25;;;;;;;19.45;14.38;;;30.80;98.40;;;;;;4158617;28;20049;-66
2022/03/22 14:36:46;;;;;;;18.70;13.27;;;30.70;98.30;;;;;;4158583;28;20057;-67
2022/03/22 14:38:53;;;;;;;21.55;13.38;;;30.70;98.20;;;;;;4159436;28;20236;-67
2022/03/22 14:41:00;;;;;;;20.50;13.45;;;30.70;98.30;;;;;;4159285;28;20053;-66
2022/03/22 14:43:09;;;;;;;19.20;13.00;;;30.70;98.30;;;;;;4156881;28;20106;-67
2022/03/22 14:45:18;;;;;;;22.35;14.07;;;30.70;98.20;;;;;;4159561;28;20385;-67
2022/03/22 14:47:26;;;;;;;24.80;17.23;;;30.70;98.30;;;;;;4159661;28;20579;-66
2022/03/22 14:49:30;;;;;;;25.52;16.58;;;30.70;98.20;;;;;;4158988;28;20088;-67
2022/03/22 14:54:04;;;;;;;21.25;14.18;;;30.60;98.30;;;;;;4159068;28;20057;-70
2022/03/22 15:00:53;;;;;;;15.48;11.13;;;30.60;98.30;;;;;;4152341;28;20033;-69
2022/03/22 15:03:00;;;;;;;20.23;12.35;;;30.50;98.40;;;;;;4161080;28;20053;-70
2022/03/22 15:07:34;;;;;;;18.27;12.90;;;30.60;98.60;;;;;;4160178;28;20119;-69
2022/03/22 15:09:39;;;;;;;17.55;11.82;;;30.50;98.60;;;;;;4160161;28;20091;-70
2022/03/22 15:11:50;;;;;;;15.25;11.45;;;30.50;98.60;;;;;;4159188;28;20060;-69
2022/03/22 15:13:56;;;;;;;17.30;11.52;;;30.40;98.70;;;;;;4160289;28;20507;-69
2022/03/22 15:16:05;;;;;;;14.52;11.27;;;30.40;98.70;;;;;;4160670;28;20053;-70
2022/03/22 15:18:15;;;;;;;17.35;11.07;;;30.40;98.80;;;;;;4160047;28;20132;-70
2022/03/22 15:20:20;;;;;;;15.85;10.85;;;30.40;98.80;;;;;;4158722;28;20053;-70
2022/03/22 15:22:28;;;;;;;14.75;10.38;;;30.40;99.10;;;;;;4159893;28;20152;-70
2022/03/22 15:24:35;;;;;;;15.40;10.38;;;30.40;99.20;;;;;;4141197;28;20056;-70
2022/03/22 15:26:41;;;;;;;15.30;11.20;;;30.40;99.20;;;;;;4160101;28;20099;-69
2022/03/22 15:28:47;;;;;;;15.30;10.45;;;30.40;99.30;;;;;;4160013;28;20080;-70
2022/03/22 15:30:54;;;;;;;13.65;10.05;;;30.30;99.30;;;;;;4160352;28;20049;-70
2022/03/22 15:32:59;;;;;;;17.05;10.25;;;30.30;99.30;;;;;;4159566;28;20045;-71
2022/03/22 15:35:05;;;;;;;13.80;9.82;;;30.30;99.40;;;;;;4160198;28;20120;-70
2022/03/22 15:37:11;;;;;;;17.58;10.10;;;30.30;99.40;;;;;;4160181;28;20512;-70
2022/03/22 15:39:17;;;;;;;13.57;9.35;;;30.30;99.50;;;;;;4159724;28;20075;-71
2022/03/22 15:41:21;;;;;;;14.35;10.13;;;30.30;99.50;;;;;;4158409;28;20041;-70
2022/03/22 15:43:29;;;;;;;14.23;9.93;;;30.30;99.50;;;;;;4159652;28;20107;-71
2022/03/22 15:45:35;;;;;;;16.23;10.27;;;30.20;99.50;;;;;;4159659;28;20412;-70
2022/03/22 15:47:40;;;;;;;15.27;9.70;;;30.20;99.50;;;;;;4158246;28;20093;-70
2022/03/22 15:49:49;;;;;;;14.52;9.88;;;30.20;99.40;;;;;;4159748;28;20132;-70
2022/03/22 15:51:54;;;;;;;14.85;10.57;;;30.20;99.50;;;;;;4159742;28;20045;-70
2022/03/22 15:53:59;;;;;;;12.60;10.35;;;30.20;99.50;;;;;;4158961;28;20073;-70
2022/03/22 15:56:10;;;;;;;15.07;10.38;;;30.20;99.50;;;;;;4159711;28;20056;-70
2022/03/22 15:58:15;;;;;;;13.32;10.63;;;30.20;99.50;;;;;;4159810;28;20475;-70
2022/03/22 16:00:20;;;;;;;15.90;11.73;;;30.20;99.60;;;;;;4159697;28;20413;-71
2022/03/22 16:02:26;;;;;;;14.73;10.27;;;30.20;99.70;;;;;;4159302;28;20065;-69
2022/03/22 16:04:31;;;;;;;14.23;10.68;;;30.20;99.70;;;;;;4159394;28;20132;-71
2022/03/22 16:06:36;;;;;;;15.02;11.00;;;30.20;99.70;;;;;;4159845;28;20140;-71
2022/03/22 16:08:44;;;;;;;16.10;10.52;;;30.10;99.70;;;;;;4159529;28;20049;-70
2022/03/22 16:10:48;;;;;;;15.98;10.95;;;30.10;99.70;;;;;;4159601;28;20060;-70
2022/03/22 16:12:53;;;;;;;15.07;10.20;;;30.10;99.70;;;;;;4159628;28;20053;-70
2022/03/22 16:15:02;;;;;;;15.95;10.38;;;30.10;99.60;;;;;;4158946;28;20088;-70
2022/03/22 16:17:07;;;;;;;14.45;10.18;;;30.10;99.60;;;;;;4159814;28;20084;-70
2022/03/22 16:19:12;;;;;;;16.02;11.02;;;30.10;99.60;;;;;;4159219;28;20052;-70
2022/03/22 16:21:20;;;;;;;15.32;11.15;;;30.10;99.50;;;;;;4159535;28;20071;-70
2022/03/22 16:23:26;;;;;;;16.92;10.85;;;30.10;99.50;;;;;;4160753;28;20057;-70
2022/03/22 16:25:31;;;;;;;16.15;11.00;;;30.10;99.30;;;;;;4162786;28;20064;-70
2022/03/22 16:27:44;;;;;;;13.07;10.02;;;30.10;99.40;;;;;;4162597;28;20096;-70
2022/03/22 16:29:48;;;;;;;17.05;10.63;;;30.10;99.50;;;;;;4162516;28;20064;-70
2022/03/22 16:31:52;;;;;;;14.65;9.68;;;30.00;99.70;;;;;;4162760;28;20488;-70
2022/03/22 16:39:21;;;;;;;12.55;9.25;;;30.00;99.90;;;;;;4162615;28;20053;-69
2022/03/22 16:41:00;;;;;;;15.13;9.82;;;30.00;99.90;;;;;;4162209;28;20049;-69
2022/03/22 16:43:05;;;;;;;13.73;9.60;;;30.00;99.90;;;;;;4162473;28;20281;-70
2022/03/22 16:45:11;;;;;;;15.45;10.10;;;30.00;99.90;;;;;;4162090;28;20057;-70
2022/03/22 16:47:20;;;;;;;12.65;9.75;;;30.00;99.90;;;;;;4162729;28;20053;-70
2022/03/22 16:49:25;;;;;;;16.75;9.73;;;30.00;99.90;;;;;;4162371;28;20072;-70
2022/03/22 16:51:30;;;;;;;14.10;10.27;;;30.00;99.90;;;;;;4162500;28;20061;-69
2022/03/22 16:53:39;;;;;;;15.20;10.85;;;30.00;99.90;;;;;;4143431;28;20467;-70
2022/03/22 16:55:46;;;;;;;14.48;10.30;;;29.90;99.90;;;;;;4161928;28;20072;-69
2022/03/22 16:57:51;;;;;;;15.40;10.18;;;29.90;99.90;;;;;;4162484;28;20045;-69
2022/03/22 16:59:59;;;;;;;16.00;10.88;;;29.90;99.90;;;;;;4127253;28;20964;-71
2022/03/22 17:02:05;;;;;;;15.52;10.65;;;29.90;99.90;;;;;;4160801;28;20061;-69
2022/03/22 17:04:11;;;;;;;13.57;10.48;;;29.90;99.90;;;;;;4162230;28;20084;-69
2022/03/22 17:06:20;;;;;;;14.10;10.23;;;29.90;99.90;;;;;;4162336;28;20049;-69
2022/03/22 17:08:25;;;;;;;17.88;10.60;;;29.80;99.90;;;;;;4163044;28;20053;-70
2022/03/22 17:10:31;;;;;;;13.77;9.98;;;29.80;99.90;;;;;;4161981;28;20054;-69
2022/03/22 17:12:41;;;;;;;14.07;10.38;;;29.80;99.90;;;;;;4127427;28;20058;-70
2022/03/22 17:14:46;;;;;;;16.48;9.98;;;29.80;99.90;;;;;;4161811;28;20065;-69
2022/03/22 17:16:51;;;;;;;16.35;10.00;;;29.80;99.90;;;;;;4161807;28;20100;-70
2022/03/22 17:19:05;;;;;;;12.25;9.45;;;29.80;99.90;;;;;;4162193;28;20064;-70
2022/03/22 17:21:10;;;;;;;13.48;10.02;;;29.80;99.90;;;;;;4162268;28;20510;-69
2022/03/22 17:23:16;;;;;;;14.18;10.05;;;29.80;99.90;;;;;;4162177;28;20088;-68
2022/03/22 17:25:25;;;;;;;14.02;9.65;;;29.80;99.90;;;;;;4161842;28;20068;-69
2022/03/22 17:27:29;;;;;;;13.60;9.27;;;29.80;99.90;;;;;;4161745;28;20049;-70
2022/03/22 17:29:35;;;;;;;16.42;9.90;;;29.70;99.90;;;;;;4160598;28;20041;-70
2022/03/22 17:31:44;;;;;;;12.40;9.23;;;29.70;99.90;;;;;;4161689;28;20459;-69
2022/03/22 17:33:49;;;;;;;14.55;8.75;;;29.70;99.90;;;;;;4161661;28;20041;-70
2022/03/22 17:35:55;;;;;;;14.65;9.45;;;29.70;99.70;;;;;;4160944;28;20049;-69
2022/03/22 17:38:04;;;;;;;10.23;8.65;;;29.70;99.70;;;;;;4161345;28;20129;-69
2022/03/22 17:40:11;;;;;;;14.25;9.13;;;29.70;99.60;;;;;;4161293;28;20076;-70
2022/03/22 17:42:15;;;;;;;12.13;8.65;;;29.70;99.70;;;;;;4161633;28;20049;-69
2022/03/22 17:44:24;;;;;;;11.00;8.90;;;29.70;99.60;;;;;;4161375;28;20057;-69
2022/03/22 17:46:30;;;;;;;11.20;8.65;;;29.70;99.40;;;;;;4161760;28;20065;-69
2022/03/22 17:48:35;;;;;;;13.07;8.23;;;29.70;99.60;;;;;;4161341;28;20686;-70
2022/03/22 17:50:43;;;;;;;12.07;8.45;;;29.70;99.60;;;;;;4161279;28;20084;-70
2022/03/22 17:52:50;;;;;;;10.25;8.57;;;29.60;99.50;;;;;;4161572;28;20077;-69
2022/03/22 17:54:57;;;;;;;12.05;8.65;;;29.60;99.40;;;;;;4161377;28;20123;-69
2022/03/22 17:57:04;;;;;;;12.15;8.20;;;29.60;99.50;;;;;;4161366;28;20045;-70
2022/03/22 17:59:09;;;;;;;11.52;8.02;;;29.60;99.50;;;;;;4160779;28;20053;-69
2022/03/22 18:01:14;;;;;;;12.38;8.63;;;29.60;99.70;;;;;;4161003;28;20422;-69
2022/03/22 18:03:23;;;;;;;14.75;8.70;;;29.60;99.70;;;;;;4126345;28;20769;-70
2022/03/22 18:05:28;;;;;;;9.88;7.97;;;29.60;99.80;;;;;;4161202;28;20076;-70
2022/03/22 18:07:33;;;;;;;14.07;8.30;;;29.50;99.80;;;;;;4161235;28;20116;-69
2022/03/22 18:09:42;;;;;;;11.73;8.18;;;29.50;99.90;;;;;;4160858;28;20498;-69